sensor_id;sensor_type;location;lat;lon;timestamp;pressure;altitude;pressure_sealevel;temperature;humidity
77631;BME280;66798;47.370;8.552;2023-12-14T00:00:25;95729.31;;;6.71;87.54
77631;BME280;66798;47.370;8.552;2023-12-14T00:02:50;95734.00;;;6.74;87.92
77631;BME280;66798;47.370;8.552;2023-12-14T00:05:16;95735.31;;;6.66;86.67
77631;BME280;66798;47.370;8.552;2023-12-14T00:07:41;95739.00;;;6.65;86.28
77631;BME280;66798;47.370;8.552;2023-12-14T00:10:07;95743.44;;;6.75;87.63
77631;BME280;66798;47.370;8.552;2023-12-14T00:12:33;95739.75;;;6.76;85.97
77631;BME280;66798;47.370;8.552;2023-12-14T00:14:58;95747.06;;;6.79;86.75
77631;BME280;66798;47.370;8.552;2023-12-14T00:17:24;95743.94;;;6.82;86.00
77631;BME280;66798;47.370;8.552;2023-12-14T00:19:49;95742.88;;;6.83;87.39
77631;BME280;66798;47.370;8.552;2023-12-14T00:22:15;95752.03;;;6.80;87.21
77631;BME280;66798;47.370;8.552;2023-12-14T00:24:40;95750.72;;;6.83;87.45
77631;BME280;66798;47.370;8.552;2023-12-14T00:27:05;95755.69;;;6.85;87.62
77631;BME280;66798;47.370;8.552;2023-12-14T00:29:31;95760.94;;;6.79;87.96
77631;BME280;66798;47.370;8.552;2023-12-14T00:31:56;95760.16;;;6.84;87.98
77631;BME280;66798;47.370;8.552;2023-12-14T00:34:22;95767.47;;;6.87;88.39
77631;BME280;66798;47.370;8.552;2023-12-14T00:36:47;95774.25;;;6.88;87.69
77631;BME280;66798;47.370;8.552;2023-12-14T00:39:13;95776.06;;;6.88;87.11
77631;BME280;66798;47.370;8.552;2023-12-14T00:41:38;95780.78;;;6.86;86.59
77631;BME280;66798;47.370;8.552;2023-12-14T00:44:04;95778.16;;;6.91;87.35
77631;BME280;66798;47.370;8.552;2023-12-14T00:46:29;95793.59;;;6.92;88.03
77631;BME280;66798;47.370;8.552;2023-12-14T00:48:55;95790.44;;;6.95;87.89
77631;BME280;66798;47.370;8.552;2023-12-14T00:51:20;95790.97;;;6.97;86.92
77631;BME280;66798;47.370;8.552;2023-12-14T00:53:45;95794.38;;;6.98;87.97
77631;BME280;66798;47.370;8.552;2023-12-14T00:56:11;95794.66;;;6.96;87.96
77631;BME280;66798;47.370;8.552;2023-12-14T00:58:37;95794.88;;;7.00;88.64
77631;BME280;66798;47.370;8.552;2023-12-14T01:01:03;95797.50;;;7.00;89.07
77631;BME280;66798;47.370;8.552;2023-12-14T01:03:28;95796.97;;;6.98;87.66
77631;BME280;66798;47.370;8.552;2023-12-14T01:05:54;95805.09;;;7.01;87.63
77631;BME280;66798;47.370;8.552;2023-12-14T01:08:19;95818.69;;;7.04;87.28
77631;BME280;66798;47.370;8.552;2023-12-14T01:10:45;95815.00;;;7.05;87.89
77631;BME280;66798;47.370;8.552;2023-12-14T01:13:10;95830.69;;;7.05;88.00
77631;BME280;66798;47.370;8.552;2023-12-14T01:15:36;95824.44;;;6.85;89.46
77631;BME280;66798;47.370;8.552;2023-12-14T01:18:01;95834.13;;;6.85;89.68
77631;BME280;66798;47.370;8.552;2023-12-14T01:20:27;95837.22;;;6.71;90.97
77631;BME280;66798;47.370;8.552;2023-12-14T01:22:52;95838.81;;;6.83;90.66
77631;BME280;66798;47.370;8.552;2023-12-14T01:25:18;95844.28;;;6.76;90.83
77631;BME280;66798;47.370;8.552;2023-12-14T01:27:43;95854.75;;;6.71;91.25
77631;BME280;66798;47.370;8.552;2023-12-14T01:30:09;95847.69;;;6.81;90.15
77631;BME280;66798;47.370;8.552;2023-12-14T01:32:34;95849.28;;;6.83;90.50
77631;BME280;66798;47.370;8.552;2023-12-14T01:35:00;95857.63;;;6.90;89.87
77631;BME280;66798;47.370;8.552;2023-12-14T01:37:26;95862.34;;;6.93;90.18
77631;BME280;66798;47.370;8.552;2023-12-14T01:39:51;95864.44;;;6.91;89.54
77631;BME280;66798;47.370;8.552;2023-12-14T01:42:17;95868.34;;;6.88;87.20
77631;BME280;66798;47.370;8.552;2023-12-14T01:44:42;95863.91;;;6.84;87.08
77631;BME280;66798;47.370;8.552;2023-12-14T01:47:07;95863.13;;;6.88;87.23
77631;BME280;66798;47.370;8.552;2023-12-14T01:49:33;95860.25;;;6.90;87.98
77631;BME280;66798;47.370;8.552;2023-12-14T01:51:59;95862.63;;;6.91;86.45
77631;BME280;66798;47.370;8.552;2023-12-14T01:54:24;95870.47;;;6.91;87.89
77631;BME280;66798;47.370;8.552;2023-12-14T01:56:50;95875.94;;;6.90;87.67
77631;BME280;66798;47.370;8.552;2023-12-14T01:59:15;95868.88;;;6.80;86.37
77631;BME280;66798;47.370;8.552;2023-12-14T02:01:45;95880.63;;;6.83;85.97
77631;BME280;66798;47.370;8.552;2023-12-14T02:04:13;95875.66;;;6.86;87.12
77631;BME280;66798;47.370;8.552;2023-12-14T02:06:40;95880.88;;;6.81;87.85
77631;BME280;66798;47.370;8.552;2023-12-14T02:09:05;95890.56;;;6.86;88.01
77631;BME280;66798;47.370;8.552;2023-12-14T02:11:31;95893.44;;;6.79;87.87
77631;BME280;66798;47.370;8.552;2023-12-14T02:13:57;95895.00;;;6.80;87.97
77631;BME280;66798;47.370;8.552;2023-12-14T02:16:22;95906.00;;;6.77;87.64
77631;BME280;66798;47.370;8.552;2023-12-14T02:18:48;95911.47;;;6.70;87.43
77631;BME280;66798;47.370;8.552;2023-12-14T02:21:13;95918.78;;;6.73;86.82
77631;BME280;66798;47.370;8.552;2023-12-14T02:23:46;95912.19;;;6.50;88.34
77631;BME280;66798;47.370;8.552;2023-12-14T02:26:12;95916.81;;;6.28;89.82
77631;BME280;66798;47.370;8.552;2023-12-14T02:28:38;95920.75;;;6.35;88.78
77631;BME280;66798;47.370;8.552;2023-12-14T02:31:03;95931.22;;;6.41;89.75
77631;BME280;66798;47.370;8.552;2023-12-14T02:33:29;95927.06;;;6.40;90.27
77631;BME280;66798;47.370;8.552;2023-12-14T02:35:55;95934.66;;;6.51;89.69
77631;BME280;66798;47.370;8.552;2023-12-14T02:38:20;95933.84;;;6.41;89.67
77631;BME280;66798;47.370;8.552;2023-12-14T02:40:46;95939.59;;;6.43;90.02
77631;BME280;66798;47.370;8.552;2023-12-14T02:43:12;95940.88;;;6.40;90.18
77631;BME280;66798;47.370;8.552;2023-12-14T02:45:37;95942.72;;;6.45;90.33
77631;BME280;66798;47.370;8.552;2023-12-14T02:48:03;95949.81;;;6.49;89.84
77631;BME280;66798;47.370;8.552;2023-12-14T02:50:29;95947.44;;;6.53;90.28
77631;BME280;66798;47.370;8.552;2023-12-14T02:52:54;95944.34;;;6.56;90.87
77631;BME280;66798;47.370;8.552;2023-12-14T02:55:19;95947.75;;;6.62;90.45
77631;BME280;66798;47.370;8.552;2023-12-14T02:57:45;95950.09;;;6.58;90.19
77631;BME280;66798;47.370;8.552;2023-12-14T03:00:11;95949.59;;;6.61;90.22
77631;BME280;66798;47.370;8.552;2023-12-14T03:02:37;95950.38;;;6.62;89.32
77631;BME280;66798;47.370;8.552;2023-12-14T03:05:03;95953.53;;;6.69;89.32
77631;BME280;66798;47.370;8.552;2023-12-14T03:07:28;95950.13;;;6.73;89.09
77631;BME280;66798;47.370;8.552;2023-12-14T03:09:54;95965.03;;;6.73;88.69
77631;BME280;66798;47.370;8.552;2023-12-14T03:12:19;95965.81;;;6.73;88.86
77631;BME280;66798;47.370;8.552;2023-12-14T03:14:45;95962.13;;;6.69;89.38
77631;BME280;66798;47.370;8.552;2023-12-14T03:17:10;95970.25;;;6.73;88.53
77631;BME280;66798;47.370;8.552;2023-12-14T03:19:39;95973.66;;;6.73;89.05
77631;BME280;66798;47.370;8.552;2023-12-14T03:22:05;95974.44;;;6.74;89.26
77631;BME280;66798;47.370;8.552;2023-12-14T03:24:31;95987.50;;;6.74;89.43
77631;BME280;66798;47.370;8.552;2023-12-14T03:26:56;95977.34;;;6.77;89.01
77631;BME280;66798;47.370;8.552;2023-12-14T03:29:22;95983.06;;;6.74;87.88
77631;BME280;66798;47.370;8.552;2023-12-14T03:31:47;95987.00;;;6.77;88.15
77631;BME280;66798;47.370;8.552;2023-12-14T03:34:13;95988.81;;;6.81;87.75
77631;BME280;66798;47.370;8.552;2023-12-14T03:36:38;95994.88;;;6.82;87.78
77631;BME280;66798;47.370;8.552;2023-12-14T03:39:04;95991.19;;;6.83;89.44
77631;BME280;66798;47.370;8.552;2023-12-14T03:41:32;95998.25;;;6.83;88.08
77631;BME280;66798;47.370;8.552;2023-12-14T03:43:58;95994.56;;;6.78;88.27
77631;BME280;66798;47.370;8.552;2023-12-14T03:46:23;95997.47;;;6.77;87.70
77631;BME280;66798;47.370;8.552;2023-12-14T03:48:49;96004.78;;;6.75;87.85
77631;BME280;66798;47.370;8.552;2023-12-14T03:51:21;96014.41;;;6.74;87.26
77631;BME280;66798;47.370;8.552;2023-12-14T03:53:46;96011.56;;;6.76;87.73
77631;BME280;66798;47.370;8.552;2023-12-14T03:56:12;96017.06;;;6.79;87.43
77631;BME280;66798;47.370;8.552;2023-12-14T03:58:38;96021.78;;;6.83;87.72
77631;BME280;66798;47.370;8.552;2023-12-14T04:01:03;96024.63;;;6.76;88.19
77631;BME280;66798;47.370;8.552;2023-12-14T04:03:29;96026.69;;;6.69;88.69
77631;BME280;66798;47.370;8.552;2023-12-14T04:05:54;96028.00;;;6.66;88.17
77631;BME280;66798;47.370;8.552;2023-12-14T04:08:20;96041.06;;;6.71;88.64
77631;BME280;66798;47.370;8.552;2023-12-14T04:10:45;96031.44;;;6.77;88.88
77631;BME280;66798;47.370;8.552;2023-12-14T04:13:11;96046.59;;;6.80;89.66
77631;BME280;66798;47.370;8.552;2023-12-14T04:15:36;96040.31;;;6.81;90.51
77631;BME280;66798;47.370;8.552;2023-12-14T04:18:02;96048.94;;;6.76;89.92
77631;BME280;66798;47.370;8.552;2023-12-14T04:20:27;96055.75;;;6.83;89.34
77631;BME280;66798;47.370;8.552;2023-12-14T04:22:53;96064.91;;;6.85;89.42
77631;BME280;66798;47.370;8.552;2023-12-14T04:25:18;96058.38;;;6.83;89.36
77631;BME280;66798;47.370;8.552;2023-12-14T04:27:44;96069.91;;;6.87;88.47
77631;BME280;66798;47.370;8.552;2023-12-14T04:30:10;96073.81;;;6.84;88.65
77631;BME280;66798;47.370;8.552;2023-12-14T04:32:38;96078.22;;;6.84;87.88
77631;BME280;66798;47.370;8.552;2023-12-14T04:35:04;96081.13;;;6.87;87.99
77631;BME280;66798;47.370;8.552;2023-12-14T04:37:30;96086.38;;;6.87;87.93
77631;BME280;66798;47.370;8.552;2023-12-14T04:39:57;96088.44;;;6.85;88.20
77631;BME280;66798;47.370;8.552;2023-12-14T04:42:22;96087.94;;;6.88;88.35
77631;BME280;66798;47.370;8.552;2023-12-14T04:44:48;96094.22;;;6.92;89.29
77631;BME280;66798;47.370;8.552;2023-12-14T04:47:13;96097.88;;;6.91;89.75
77631;BME280;66798;47.370;8.552;2023-12-14T04:49:39;96101.28;;;6.92;89.96
77631;BME280;66798;47.370;8.552;2023-12-14T04:52:05;96105.19;;;6.89;89.10
77631;BME280;66798;47.370;8.552;2023-12-14T04:54:31;96107.53;;;6.91;88.85
77631;BME280;66798;47.370;8.552;2023-12-14T04:56:56;96115.13;;;6.87;89.52
77631;BME280;66798;47.370;8.552;2023-12-14T04:59:22;96120.06;;;6.84;88.47
77631;BME280;66798;47.370;8.552;2023-12-14T05:01:47;96125.78;;;6.75;89.90
77631;BME280;66798;47.370;8.552;2023-12-14T05:04:12;96132.84;;;6.80;90.62
77631;BME280;66798;47.370;8.552;2023-12-14T05:06:38;96135.72;;;6.78;90.63
77631;BME280;66798;47.370;8.552;2023-12-14T05:09:04;96142.81;;;6.88;88.74
77631;BME280;66798;47.370;8.552;2023-12-14T05:11:31;96145.09;;;6.74;87.88
77631;BME280;66798;47.370;8.552;2023-12-14T05:13:57;96145.63;;;6.76;89.48
77631;BME280;66798;47.370;8.552;2023-12-14T05:16:23;96151.91;;;6.75;89.43
77631;BME280;66798;47.370;8.552;2023-12-14T05:18:53;96150.09;;;6.81;88.53
77631;BME280;66798;47.370;8.552;2023-12-14T05:21:18;96157.38;;;6.74;89.55
77631;BME280;66798;47.370;8.552;2023-12-14T05:23:44;96162.63;;;6.79;89.69
77631;BME280;66798;47.370;8.552;2023-12-14T05:26:10;96162.63;;;6.79;89.12
77631;BME280;66798;47.370;8.552;2023-12-14T05:28:35;96165.00;;;6.80;89.33
77631;BME280;66798;47.370;8.552;2023-12-14T05:31:01;96174.13;;;6.73;89.08
77631;BME280;66798;47.370;8.552;2023-12-14T05:33:28;96178.84;;;6.81;88.21
77631;BME280;66798;47.370;8.552;2023-12-14T05:35:53;96181.22;;;6.83;89.31
77631;BME280;66798;47.370;8.552;2023-12-14T05:38:19;96190.38;;;6.80;88.58
77631;BME280;66798;47.370;8.552;2023-12-14T05:40:44;96194.28;;;6.77;89.94
77631;BME280;66798;47.370;8.552;2023-12-14T05:43:10;96191.16;;;6.86;88.98
77631;BME280;66798;47.370;8.552;2023-12-14T05:45:36;96198.78;;;6.87;88.83
77631;BME280;66798;47.370;8.552;2023-12-14T05:48:01;96200.63;;;6.92;87.95
77631;BME280;66798;47.370;8.552;2023-12-14T05:50:27;96206.91;;;6.96;88.23
77631;BME280;66798;47.370;8.552;2023-12-14T05:52:55;96207.19;;;6.94;88.19
77631;BME280;66798;47.370;8.552;2023-12-14T05:55:20;96209.28;;;6.97;87.97
77631;BME280;66798;47.370;8.552;2023-12-14T05:57:48;96212.13;;;6.96;87.14
77631;BME280;66798;47.370;8.552;2023-12-14T06:00:13;96221.81;;;6.95;87.63
77631;BME280;66798;47.370;8.552;2023-12-14T06:02:39;96226.50;;;6.93;88.57
77631;BME280;66798;47.370;8.552;2023-12-14T06:05:06;96224.69;;;6.94;88.55
77631;BME280;66798;47.370;8.552;2023-12-14T06:07:32;96230.19;;;6.97;88.86
77631;BME280;66798;47.370;8.552;2023-12-14T06:09:57;96241.47;;;7.03;88.60
77631;BME280;66798;47.370;8.552;2023-12-14T06:12:23;96244.63;;;7.05;88.53
77631;BME280;66798;47.370;8.552;2023-12-14T06:14:48;96252.78;;;6.76;89.02
77631;BME280;66798;47.370;8.552;2023-12-14T06:17:15;96260.22;;;6.90;88.59
77631;BME280;66798;47.370;8.552;2023-12-14T06:19:41;96264.88;;;6.83;89.18
77631;BME280;66798;47.370;8.552;2023-12-14T06:22:07;96270.09;;;6.83;88.83
77631;BME280;66798;47.370;8.552;2023-12-14T06:24:32;96269.03;;;6.84;87.99
77631;BME280;66798;47.370;8.552;2023-12-14T06:26:58;96283.78;;;6.95;88.62
77631;BME280;66798;47.370;8.552;2023-12-14T06:29:23;96283.97;;;6.88;87.85
77631;BME280;66798;47.370;8.552;2023-12-14T06:31:48;96288.44;;;6.88;88.34
77631;BME280;66798;47.370;8.552;2023-12-14T06:34:14;96293.50;;;6.99;88.89
77631;BME280;66798;47.370;8.552;2023-12-14T06:36:46;96295.34;;;7.04;87.83
77631;BME280;66798;47.370;8.552;2023-12-14T06:39:12;96299.19;;;6.91;87.92
77631;BME280;66798;47.370;8.552;2023-12-14T06:41:38;96303.13;;;6.94;88.07
77631;BME280;66798;47.370;8.552;2023-12-14T06:44:04;96316.09;;;6.84;88.74
77631;BME280;66798;47.370;8.552;2023-12-14T06:46:29;96319.28;;;6.91;88.22
77631;BME280;66798;47.370;8.552;2023-12-14T06:48:55;96324.59;;;6.69;88.58
77631;BME280;66798;47.370;8.552;2023-12-14T06:51:21;96327.53;;;6.72;88.85
77631;BME280;66798;47.370;8.552;2023-12-14T06:53:47;96335.66;;;6.76;88.82
77631;BME280;66798;47.370;8.552;2023-12-14T06:56:14;96333.66;;;6.88;88.23
77631;BME280;66798;47.370;8.552;2023-12-14T06:58:41;96339.47;;;6.95;88.07
77631;BME280;66798;47.370;8.552;2023-12-14T07:01:12;96346.19;;;6.86;87.73
77631;BME280;66798;47.370;8.552;2023-12-14T07:03:42;96352.00;;;6.93;87.32
77631;BME280;66798;47.370;8.552;2023-12-14T07:06:17;96356.72;;;6.91;87.50
77631;BME280;66798;47.370;8.552;2023-12-14T07:08:44;96357.56;;;7.02;87.51
77631;BME280;66798;47.370;8.552;2023-12-14T07:11:10;96361.22;;;7.01;87.52
77631;BME280;66798;47.370;8.552;2023-12-14T07:13:36;96363.53;;;6.97;87.13
77631;BME280;66798;47.370;8.552;2023-12-14T07:16:09;96360.16;;;6.97;86.69
77631;BME280;66798;47.370;8.552;2023-12-14T07:18:38;96364.81;;;6.95;87.10
77631;BME280;66798;47.370;8.552;2023-12-14T07:21:04;96372.03;;;6.83;86.26
77631;BME280;66798;47.370;8.552;2023-12-14T07:23:29;96373.56;;;6.78;87.50
77631;BME280;66798;47.370;8.552;2023-12-14T07:25:55;96376.78;;;6.86;87.31
77631;BME280;66798;47.370;8.552;2023-12-14T07:28:21;96387.03;;;6.92;87.15
77631;BME280;66798;47.370;8.552;2023-12-14T07:30:47;96387.22;;;6.86;87.28
77631;BME280;66798;47.370;8.552;2023-12-14T07:33:13;96395.81;;;6.81;87.19
77631;BME280;66798;47.370;8.552;2023-12-14T07:35:39;96398.63;;;6.74;88.11
77631;BME280;66798;47.370;8.552;2023-12-14T07:38:04;96400.03;;;6.82;87.99
77631;BME280;66798;47.370;8.552;2023-12-14T07:40:30;96399.78;;;6.89;87.13
77631;BME280;66798;47.370;8.552;2023-12-14T07:42:55;96399.56;;;6.90;86.82
77631;BME280;66798;47.370;8.552;2023-12-14T07:45:21;96411.25;;;6.83;86.93
77631;BME280;66798;47.370;8.552;2023-12-14T07:47:46;96422.06;;;6.91;87.74
77631;BME280;66798;47.370;8.552;2023-12-14T07:50:12;96425.34;;;6.81;87.37
77631;BME280;66798;47.370;8.552;2023-12-14T07:52:38;96426.44;;;6.86;87.24
77631;BME280;66798;47.370;8.552;2023-12-14T07:55:05;96424.91;;;6.90;86.45
77631;BME280;66798;47.370;8.552;2023-12-14T07:57:31;96430.47;;;6.71;86.52
77631;BME280;66798;47.370;8.552;2023-12-14T07:59:56;96441.25;;;6.75;87.09
77631;BME280;66798;47.370;8.552;2023-12-14T08:02:22;96443.59;;;6.76;86.61
77631;BME280;66798;47.370;8.552;2023-12-14T08:04:48;96445.00;;;6.84;86.92
77631;BME280;66798;47.370;8.552;2023-12-14T08:07:13;96445.94;;;6.73;86.12
77631;BME280;66798;47.370;8.552;2023-12-14T08:09:39;96456.84;;;6.92;86.28
77631;BME280;66798;47.370;8.552;2023-12-14T08:12:04;96463.03;;;6.86;86.50
77631;BME280;66798;47.370;8.552;2023-12-14T08:14:35;96468.09;;;6.92;86.20
77631;BME280;66798;47.370;8.552;2023-12-14T08:17:01;96467.97;;;6.60;85.30
77631;BME280;66798;47.370;8.552;2023-12-14T08:19:26;96465.56;;;6.75;86.27
77631;BME280;66798;47.370;8.552;2023-12-14T08:21:52;96469.31;;;6.85;86.44
77631;BME280;66798;47.370;8.552;2023-12-14T08:24:18;96480.19;;;6.76;85.71
77631;BME280;66798;47.370;8.552;2023-12-14T08:26:43;96491.06;;;6.90;86.00
77631;BME280;66798;47.370;8.552;2023-12-14T08:29:09;96488.75;;;6.94;86.20
77631;BME280;66798;47.370;8.552;2023-12-14T08:31:34;96502.81;;;6.88;85.30
77631;BME280;66798;47.370;8.552;2023-12-14T08:34:00;96509.13;;;6.92;85.48
77631;BME280;66798;47.370;8.552;2023-12-14T08:36:26;96515.59;;;6.84;85.79
77631;BME280;66798;47.370;8.552;2023-12-14T08:38:51;96519.63;;;6.97;85.67
77631;BME280;66798;47.370;8.552;2023-12-14T08:41:17;96518.34;;;6.99;85.20
77631;BME280;66798;47.370;8.552;2023-12-14T08:43:42;96528.16;;;6.87;85.69
77631;BME280;66798;47.370;8.552;2023-12-14T08:46:08;96531.28;;;6.84;85.36
77631;BME280;66798;47.370;8.552;2023-12-14T08:48:33;96535.94;;;7.04;85.93
77631;BME280;66798;47.370;8.552;2023-12-14T08:51:01;96535.56;;;6.95;85.40
77631;BME280;66798;47.370;8.552;2023-12-14T08:53:26;96540.75;;;6.90;84.82
77631;BME280;66798;47.370;8.552;2023-12-14T08:55:52;96544.09;;;6.86;85.07
77631;BME280;66798;47.370;8.552;2023-12-14T08:58:17;96538.34;;;6.89;84.77
77631;BME280;66798;47.370;8.552;2023-12-14T09:00:43;96553.25;;;6.88;85.01
77631;BME280;66798;47.370;8.552;2023-12-14T09:03:08;96558.50;;;6.88;84.76
77631;BME280;66798;47.370;8.552;2023-12-14T09:05:34;96560.69;;;6.96;84.70
77631;BME280;66798;47.370;8.552;2023-12-14T09:08:00;96571.16;;;6.96;85.02
77631;BME280;66798;47.370;8.552;2023-12-14T09:10:25;96576.31;;;6.91;84.88
77631;BME280;66798;47.370;8.552;2023-12-14T09:12:51;96580.56;;;6.75;85.14
77631;BME280;66798;47.370;8.552;2023-12-14T09:15:16;96585.34;;;6.84;85.76
77631;BME280;66798;47.370;8.552;2023-12-14T09:17:42;96599.84;;;6.91;86.00
77631;BME280;66798;47.370;8.552;2023-12-14T09:20:09;96603.69;;;7.06;85.09
77631;BME280;66798;47.370;8.552;2023-12-14T09:22:34;96607.88;;;7.07;85.73
77631;BME280;66798;47.370;8.552;2023-12-14T09:25:00;96617.56;;;7.06;84.59
77631;BME280;66798;47.370;8.552;2023-12-14T09:27:25;96622.78;;;7.06;84.77
77631;BME280;66798;47.370;8.552;2023-12-14T09:29:54;96627.28;;;7.11;84.52
77631;BME280;66798;47.370;8.552;2023-12-14T09:32:19;96626.00;;;7.13;83.77
77631;BME280;66798;47.370;8.552;2023-12-14T09:34:45;96636.19;;;7.15;84.95
77631;BME280;66798;47.370;8.552;2023-12-14T09:37:10;96637.97;;;7.09;84.59
77631;BME280;66798;47.370;8.552;2023-12-14T09:39:36;96646.19;;;7.18;84.93
77631;BME280;66798;47.370;8.552;2023-12-14T09:42:03;96648.75;;;7.13;84.01
77631;BME280;66798;47.370;8.552;2023-12-14T09:44:33;96647.88;;;7.07;84.28
77631;BME280;66798;47.370;8.552;2023-12-14T09:46:59;96652.16;;;7.13;84.87
77631;BME280;66798;47.370;8.552;2023-12-14T09:49:26;96656.53;;;7.08;84.51
77631;BME280;66798;47.370;8.552;2023-12-14T09:51:57;96655.44;;;7.04;85.14
77631;BME280;66798;47.370;8.552;2023-12-14T09:54:23;96661.03;;;7.12;85.41
77631;BME280;66798;47.370;8.552;2023-12-14T09:56:49;96657.13;;;7.15;83.60
77631;BME280;66798;47.370;8.552;2023-12-14T09:59:16;96654.41;;;7.27;84.08
77631;BME280;66798;47.370;8.552;2023-12-14T10:01:42;96665.47;;;7.34;83.58
77631;BME280;66798;47.370;8.552;2023-12-14T10:04:09;96671.19;;;7.31;83.84
77631;BME280;66798;47.370;8.552;2023-12-14T10:06:36;96668.75;;;7.24;82.70
77631;BME280;66798;47.370;8.552;2023-12-14T10:09:02;96668.16;;;7.39;83.49
77631;BME280;66798;47.370;8.552;2023-12-14T10:11:28;96673.19;;;7.45;83.36
77631;BME280;66798;47.370;8.552;2023-12-14T10:13:57;96676.31;;;7.42;82.89
77631;BME280;66798;47.370;8.552;2023-12-14T10:16:32;96677.75;;;7.33;81.75
77631;BME280;66798;47.370;8.552;2023-12-14T10:18:59;96678.50;;;7.29;82.22
77631;BME280;66798;47.370;8.552;2023-12-14T10:21:29;96677.28;;;7.36;82.92
77631;BME280;66798;47.370;8.552;2023-12-14T10:23:58;96681.03;;;7.45;83.01
77631;BME280;66798;47.370;8.552;2023-12-14T10:26:25;96684.59;;;7.56;82.45
77631;BME280;66798;47.370;8.552;2023-12-14T10:28:52;96684.88;;;7.60;82.37
77631;BME280;66798;47.370;8.552;2023-12-14T10:31:19;96681.06;;;7.68;81.61
77631;BME280;66798;47.370;8.552;2023-12-14T10:33:45;96682.06;;;7.66;81.30
77631;BME280;66798;47.370;8.552;2023-12-14T10:36:13;96681.28;;;7.66;81.56
77631;BME280;66798;47.370;8.552;2023-12-14T10:38:40;96687.16;;;7.51;81.14
77631;BME280;66798;47.370;8.552;2023-12-14T10:41:09;96680.75;;;7.64;81.23
77631;BME280;66798;47.370;8.552;2023-12-14T10:43:39;96680.19;;;7.62;80.63
77631;BME280;66798;47.370;8.552;2023-12-14T10:46:09;96686.56;;;7.71;80.76
77631;BME280;66798;47.370;8.552;2023-12-14T10:48:35;96684.69;;;7.66;81.29
77631;BME280;66798;47.370;8.552;2023-12-14T10:51:05;96695.72;;;7.69;81.06
77631;BME280;66798;47.370;8.552;2023-12-14T10:53:32;96691.94;;;7.59;81.79
77631;BME280;66798;47.370;8.552;2023-12-14T10:56:01;96698.88;;;7.71;81.70
77631;BME280;66798;47.370;8.552;2023-12-14T11:01:14;96702.78;;;7.68;81.56
77631;BME280;66798;47.370;8.552;2023-12-14T11:03:40;96710.75;;;7.56;80.46
77631;BME280;66798;47.370;8.552;2023-12-14T11:08:52;96728.19;;;7.68;81.53
77631;BME280;66798;47.370;8.552;2023-12-14T11:11:20;96734.97;;;7.69;81.80
77631;BME280;66798;47.370;8.552;2023-12-14T11:13:52;96726.19;;;7.58;83.67
77631;BME280;66798;47.370;8.552;2023-12-14T11:16:22;96745.75;;;7.50;83.23
77631;BME280;66798;47.370;8.552;2023-12-14T11:18:48;96743.44;;;7.54;83.32
77631;BME280;66798;47.370;8.552;2023-12-14T11:21:19;96742.78;;;7.41;84.14
77631;BME280;66798;47.370;8.552;2023-12-14T11:23:50;96743.13;;;7.50;84.54
77631;BME280;66798;47.370;8.552;2023-12-14T11:26:21;96743.69;;;7.52;83.93
77631;BME280;66798;47.370;8.552;2023-12-14T11:28:50;96745.13;;;7.43;84.24
77631;BME280;66798;47.370;8.552;2023-12-14T11:31:16;96749.13;;;7.29;84.19
77631;BME280;66798;47.370;8.552;2023-12-14T11:33:42;96749.47;;;7.32;84.87
77631;BME280;66798;47.370;8.552;2023-12-14T11:36:12;96746.22;;;7.25;84.27
77631;BME280;66798;47.370;8.552;2023-12-14T11:38:37;96749.84;;;7.24;83.90
77631;BME280;66798;47.370;8.552;2023-12-14T11:41:03;96757.66;;;7.41;84.72
77631;BME280;66798;47.370;8.552;2023-12-14T11:43:28;96756.34;;;7.21;85.18
77631;BME280;66798;47.370;8.552;2023-12-14T11:45:54;96755.63;;;7.26;84.01
77631;BME280;66798;47.370;8.552;2023-12-14T11:48:21;96762.44;;;7.44;84.85
77631;BME280;66798;47.370;8.552;2023-12-14T11:50:47;96764.16;;;7.38;84.93
77631;BME280;66798;47.370;8.552;2023-12-14T11:53:13;96759.75;;;7.22;85.13
77631;BME280;66798;47.370;8.552;2023-12-14T11:55:40;96772.28;;;7.37;85.25
77631;BME280;66798;47.370;8.552;2023-12-14T11:58:06;96769.03;;;7.30;85.13
77631;BME280;66798;47.370;8.552;2023-12-14T12:00:32;96770.13;;;7.34;85.36
77631;BME280;66798;47.370;8.552;2023-12-14T12:03:20;96774.47;;;7.45;84.89
77631;BME280;66798;47.370;8.552;2023-12-14T12:05:50;96778.97;;;7.50;85.22
77631;BME280;66798;47.370;8.552;2023-12-14T12:08:19;96774.47;;;7.45;85.60
77631;BME280;66798;47.370;8.552;2023-12-14T12:10:46;96784.13;;;7.22;86.25
77631;BME280;66798;47.370;8.552;2023-12-14T12:13:17;96773.81;;;7.16;86.82
77631;BME280;66798;47.370;8.552;2023-12-14T12:15:43;96782.28;;;7.23;86.48
77631;BME280;66798;47.370;8.552;2023-12-14T12:18:13;96782.25;;;7.40;86.60
77631;BME280;66798;47.370;8.552;2023-12-14T12:20:39;96779.81;;;7.33;86.24
77631;BME280;66798;47.370;8.552;2023-12-14T12:23:05;96783.84;;;7.41;86.35
77631;BME280;66798;47.370;8.552;2023-12-14T12:25:32;96788.22;;;7.35;85.66
77631;BME280;66798;47.370;8.552;2023-12-14T12:27:59;96791.72;;;7.24;85.86
77631;BME280;66798;47.370;8.552;2023-12-14T12:30:25;96797.47;;;7.43;86.33
77631;BME280;66798;47.370;8.552;2023-12-14T12:32:50;96807.72;;;7.44;86.53
77631;BME280;66798;47.370;8.552;2023-12-14T12:35:18;96800.72;;;7.50;85.65
77631;BME280;66798;47.370;8.552;2023-12-14T12:37:43;96807.78;;;7.50;85.24
77631;BME280;66798;47.370;8.552;2023-12-14T12:40:10;96796.59;;;7.54;84.82
77631;BME280;66798;47.370;8.552;2023-12-14T12:42:35;96801.69;;;7.44;85.31
77631;BME280;66798;47.370;8.552;2023-12-14T12:45:01;96807.28;;;7.53;85.65
77631;BME280;66798;47.370;8.552;2023-12-14T12:47:26;96807.78;;;7.50;85.02
77631;BME280;66798;47.370;8.552;2023-12-14T12:49:52;96803.47;;;7.60;85.43
77631;BME280;66798;47.370;8.552;2023-12-14T12:52:17;96813.69;;;7.62;84.10
77631;BME280;66798;47.370;8.552;2023-12-14T12:54:43;96815.63;;;7.50;86.38
77631;BME280;66798;47.370;8.552;2023-12-14T12:57:08;96810.72;;;7.36;85.66
77631;BME280;66798;47.370;8.552;2023-12-14T12:59:34;96816.28;;;7.40;85.63
77631;BME280;66798;47.370;8.552;2023-12-14T13:02:00;96823.41;;;7.44;86.13
77631;BME280;66798;47.370;8.552;2023-12-14T13:04:25;96812.88;;;7.39;85.78
77631;BME280;66798;47.370;8.552;2023-12-14T13:06:52;96818.41;;;7.43;85.83
77631;BME280;66798;47.370;8.552;2023-12-14T13:09:18;96820.06;;;7.49;84.98